.
WxDataArchive / Data Records for 2009-07-11
2009-07-10 July 2009 2009-07-12

Data Records for Saturday, 11 July 2009

Time	Temp	Chill	HIndex	Humid	Dewpt	 Wind 	HiWind	WindDir	Rain 	Barom 
-----	----	-----	------	-----	-----	------	------	-------	-----	----- 
00:00	74.0	74.0	74.0	79	67.1	0	1	90	0.00	30.066 
00:05	74.4	74.4	74.4	79	67.4	0	1	90	0.00	30.066 
00:10	74.6	74.6	74.6	79	67.6	0	1	90	0.00	30.066 
00:15	74.7	74.7	74.7	79	67.7	0	1	90	0.00	30.063 
00:20	74.9	74.9	74.9	80	68.3	0	1	90	0.00	30.063 
00:25	75.1	75.1	75.8	79	68.1	0	1	90	0.00	30.063 
00:30	75.1	75.1	75.8	79	68.1	0	1	68	0.00	30.062 
00:35	75.3	75.3	76.1	79	68.3	0	2	68	0.00	30.062 
00:40	75.3	75.3	76.1	79	68.3	0	1	68	0.00	30.062 
00:45	75.3	75.3	76.1	79	68.3	0	2	68	0.00	30.063 
00:50	75.3	75.3	76.1	79	68.3	0	1	68	0.00	30.063 
00:55	75.1	75.1	75.8	79	68.1	0	2	68	0.00	30.063 
01:00	74.9	74.9	74.9	80	68.3	0	2	68	0.00	30.057 
01:05	74.9	74.9	74.9	80	68.3	0	1	68	0.00	30.057 
01:10	74.7	74.7	74.7	81	68.5	0	1	68	0.00	30.057 
01:15	74.7	74.7	74.7	81	68.5	0	1	68	0.00	30.053 
01:20	74.6	74.6	74.6	81	68.4	0	1	68	0.00	30.053 
01:25	74.6	74.6	74.6	81	68.4	0	2	68	0.00	30.053 
01:30	74.6	74.6	74.6	81	68.4	0	3	225	0.00	30.050 
01:35	74.4	74.4	74.4	81	68.2	0	1	225	0.00	30.050 
01:40	74.4	74.4	74.4	82	68.5	0	1	225	0.00	30.050 
01:45	74.2	74.2	74.2	82	68.3	0	1	248	0.00	30.050 
01:50	74.0	74.0	74.0	82	68.1	0	1	248	0.00	30.050 
01:55	74.0	74.0	74.0	83	68.5	0	2	248	0.00	30.050 
02:00	74.0	74.0	74.0	83	68.5	0	1	248	0.00	30.050 
02:05	74.0	74.0	74.0	83	68.5	0	1	248	0.00	30.050 
02:10	74.0	74.0	74.0	83	68.5	0	1	248	0.00	30.050 
02:15	74.0	74.0	74.0	83	68.5	0	1	248	0.00	30.047 
02:20	74.0	74.0	74.0	83	68.5	0	1	248	0.00	30.047 
02:25	74.0	74.0	74.0	83	68.5	0	1	248	0.00	30.047 
02:30	73.9	73.9	73.9	84	68.7	0	1	248	0.00	30.039 
02:35	73.9	73.9	73.9	84	68.7	0	1	248	0.00	30.039 
02:40	73.7	73.7	73.7	84	68.6	0	2	248	0.00	30.039 
02:45	73.7	73.7	73.7	84	68.6	0	1	248	0.00	30.036 
02:50	73.7	73.7	73.7	85	68.9	0	2	248	0.00	30.036 
02:55	73.7	73.7	73.7	85	68.9	0	3	248	0.00	30.036 
03:00	73.7	73.7	73.7	85	68.9	0	1	248	0.00	30.035 
03:05	73.7	73.7	73.7	85	68.9	0	2	248	0.00	30.035 
03:10	73.7	73.7	73.7	85	68.9	0	3	248	0.00	30.035 
03:15	73.7	73.7	73.7	85	68.9	1	3	248	0.00	30.032 
03:20	73.9	73.9	73.9	85	69.1	1	3	270	0.00	30.032 
03:25	73.9	73.9	73.9	85	69.1	0	3	270	0.00	30.032 
03:30	73.9	73.9	73.9	85	69.1	0	4	270	0.00	30.034 
03:35	73.9	73.9	73.9	85	69.1	1	4	248	0.00	30.034 
03:40	73.9	73.9	73.9	85	69.1	1	3	248	0.00	30.034 
03:45	74.0	74.0	74.0	85	69.2	1	4	248	0.00	30.034 
03:50	74.0	74.0	74.0	85	69.2	0	2	248	0.00	30.034 
03:55	73.9	73.9	73.9	85	69.1	1	3	270	0.00	30.034 
04:00	73.9	73.9	73.9	85	69.1	0	3	270	0.00	30.030 
04:05	73.7	73.7	73.7	85	68.9	1	3	292	0.00	30.030 
04:10	73.5	73.5	73.5	86	69.0	0	2	248	0.00	30.030 
04:15	73.3	73.3	73.3	86	68.8	0	3	248	0.00	30.028 
04:20	73.2	73.2	73.2	86	68.7	0	2	248	0.00	30.028 
04:25	73.0	73.0	73.0	87	68.9	0	3	248	0.00	30.028 
04:30	73.0	73.0	73.0	87	68.9	1	3	248	0.00	30.028 
04:35	73.0	73.0	73.0	87	68.9	0	2	270	0.00	30.028 
04:40	73.0	73.0	73.0	87	68.9	0	2	270	0.00	30.028 
04:45	72.8	72.8	72.8	88	69.0	0	2	270	0.00	30.029 
04:50	72.8	72.8	72.8	88	69.0	0	2	270	0.00	30.029 
04:55	72.7	72.7	72.7	88	68.9	0	2	248	0.00	30.029 
05:00	72.7	72.7	72.7	88	68.9	0	1	248	0.00	30.025 
05:05	72.7	72.7	72.7	88	68.9	0	3	248	0.00	30.025 
05:10	72.5	72.5	72.5	89	69.1	0	3	248	0.00	30.025 
05:15	72.5	72.5	72.5	89	69.1	0	1	248	0.00	30.018 
05:20	72.3	72.3	72.3	89	68.9	0	2	248	0.00	30.018 
05:25	72.3	72.3	72.3	89	68.9	0	2	248	0.00	30.018 
05:30	72.3	72.3	72.3	89	68.9	0	1	248	0.00	30.017 
05:35	72.3	72.3	72.3	90	69.2	0	2	248	0.00	30.017 
05:40	72.5	72.5	72.5	90	69.4	0	2	248	0.00	30.017 
05:45	72.7	72.7	72.7	89	69.3	0	2	248	0.00	30.016 
05:50	72.8	72.8	72.8	89	69.4	0	3	248	0.00	30.016 
05:55	72.8	72.8	72.8	89	69.4	0	4	248	0.00	30.016 
06:00	73.0	73.0	73.0	89	69.6	0	2	248	0.00	30.015 
06:05	73.0	73.0	73.0	89	69.6	0	1	248	0.00	30.015 
06:10	73.0	73.0	73.0	88	69.2	0	1	248	0.00	30.015 
06:15	73.0	73.0	73.0	88	69.2	0	1	248	0.00	30.019 
06:20	73.0	73.0	73.0	88	69.2	0	1	248	0.00	30.019 
06:25	73.0	73.0	73.0	89	69.6	0	1	248	0.00	30.019 
06:30	73.0	73.0	73.0	89	69.6	0	1	248	0.00	30.008 
06:35	73.0	73.0	73.0	89	69.6	0	2	248	0.00	30.008 
06:40	73.0	73.0	73.0	89	69.6	0	1	248	0.00	30.008 
06:45	72.8	72.8	72.8	89	69.4	0	0	---	0.00	29.998 
06:50	72.8	72.8	72.8	89	69.4	0	0	---	0.00	29.998 
06:55	72.8	72.8	72.8	90	69.7	0	1	248	0.00	29.998 
07:00	72.8	72.8	72.8	90	69.7	0	2	248	0.00	29.976 
07:05	72.8	72.8	72.8	90	69.7	0	1	248	0.00	29.976 
07:10	72.8	72.8	72.8	90	69.7	0	1	248	0.00	29.976 
07:15	72.8	72.8	72.8	90	69.7	0	1	248	0.00	29.983 
07:20	72.8	72.8	72.8	90	69.7	0	2	248	0.00	29.983 
07:25	72.8	72.8	72.8	90	69.7	0	1	248	0.00	29.983 
07:30	72.8	72.8	72.8	90	69.7	0	1	270	0.00	29.974 
07:35	72.8	72.8	72.8	90	69.7	0	1	270	0.00	29.974 
07:40	73.0	73.0	73.0	90	69.9	0	2	315	0.00	29.974 
07:45	73.0	73.0	73.0	90	69.9	0	3	45	0.00	29.972 
07:50	73.0	73.0	73.0	90	69.9	0	2	45	0.00	29.972 
07:55	73.2	73.2	73.2	90	70.1	0	1	45	0.00	29.972 
08:00	73.2	73.2	73.2	90	70.1	1	3	225	0.00	29.972 
08:05	73.2	73.2	73.2	90	70.1	0	3	225	0.00	29.972 
08:10	73.2	73.2	73.2	90	70.1	0	1	225	0.00	29.972 
08:15	73.2	73.2	73.2	90	70.1	0	2	225	0.01	29.978 
08:20	73.0	73.0	73.0	91	70.2	0	1	225	0.00	29.978 
08:25	73.0	73.0	73.0	91	70.2	0	0	---	0.02	29.978 
08:30	72.8	72.8	72.8	92	70.3	0	1	225	0.03	30.006 
08:35	72.8	72.8	72.8	92	70.3	0	1	225	0.03	30.006 
08:40	72.7	72.7	72.7	92	70.2	0	1	225	0.04	30.006 
08:45	72.7	72.7	72.7	93	70.6	0	1	225	0.24	30.028 
08:50	72.5	72.5	72.5	93	70.4	1	3	338	0.18	30.028 
08:55	70.9	70.9	70.9	92	68.5	1	6	0	0.12	30.028 
09:00	69.6	69.6	69.6	92	67.2	1	4	292	0.03	30.005 
09:05	69.4	69.4	69.4	93	67.3	1	3	248	0.00	30.005 
09:10	69.3	69.3	69.3	93	67.2	1	2	248	0.01	30.005 
09:15	69.1	69.1	69.1	94	67.3	1	2	248	0.00	30.004 
09:20	68.9	68.9	68.9	94	67.1	0	2	248	0.00	30.004 
09:25	69.1	69.1	69.1	94	67.3	0	1	248	0.00	30.004 
09:30	69.1	69.1	69.1	94	67.3	0	1	248	0.00	30.004 
09:35	69.3	69.3	69.3	95	67.8	0	1	248	0.00	30.004 
09:40	69.4	69.4	69.4	95	67.9	0	1	248	0.00	30.004 
09:45	69.6	69.6	69.6	95	68.1	0	1	248	0.00	30.008 
09:50	69.8	69.8	69.8	95	68.3	0	1	248	0.00	30.008 
09:55	69.9	69.9	69.9	95	68.4	0	1	248	0.00	30.008 
10:00	70.3	70.3	70.3	95	68.8	0	1	248	0.00	29.999 
10:05	70.8	70.8	70.8	96	69.6	0	1	248	0.00	29.999 
10:10	70.9	70.9	70.9	95	69.4	0	1	248	0.00	29.999 
10:15	71.5	71.5	71.5	96	70.3	0	1	248	0.00	29.996 
10:20	71.8	71.8	71.8	96	70.6	0	1	248	0.00	29.996 
10:25	72.7	72.7	72.7	96	71.5	0	1	248	0.00	29.996 
10:30	72.5	72.5	72.5	95	71.0	0	1	248	0.00	29.993 
10:35	72.5	72.5	72.5	95	71.0	0	2	248	0.00	29.993 
10:40	72.3	72.3	72.3	95	70.8	0	2	248	0.00	29.993 
10:45	72.3	72.3	72.3	95	70.8	1	3	248	0.00	29.996 
10:50	72.7	72.7	72.7	94	70.9	0	2	248	0.00	29.996 
10:55	72.7	72.7	72.7	93	70.6	1	3	270	0.00	29.996 
11:00	73.0	73.0	73.0	92	70.5	0	1	270	0.00	29.997 
11:05	72.8	72.8	72.8	91	70.0	0	2	270	0.00	29.997 
11:10	73.2	73.2	73.2	91	70.4	0	1	270	0.00	29.997 
11:15	73.3	73.3	73.3	90	70.2	1	2	270	0.00	30.005 
11:20	73.7	73.7	73.7	90	70.6	0	1	270	0.00	30.005 
11:25	74.7	74.7	74.7	90	71.6	0	2	270	0.00	30.005 
11:30	75.3	75.3	75.0	88	71.5	0	2	270	0.00	30.002 
11:35	75.3	75.3	75.2	86	70.8	1	2	270	0.00	30.002 
11:40	76.0	76.0	76.5	86	71.5	1	4	270	0.00	30.002 
11:45	76.1	76.1	76.8	84	70.9	0	2	270	0.00	30.000 
11:50	76.3	76.3	77.2	83	70.7	1	2	270	0.00	30.000 
11:55	76.7	76.7	78.0	81	70.4	1	3	270	0.00	30.000 
12:00	77.0	77.0	78.5	81	70.7	1	3	270	0.00	30.007 
12:05	77.6	77.6	79.6	81	71.3	0	3	270	0.00	30.007 
12:10	77.7	77.7	79.8	79	70.7	0	2	270	0.00	30.007 
12:15	77.7	77.7	79.8	79	70.7	1	2	270	0.00	29.999 
12:20	77.7	77.7	79.7	78	70.3	1	2	270	0.00	29.999 
12:25	77.6	77.6	79.6	78	70.2	1	3	270	0.00	29.999 
12:30	77.6	77.6	79.6	78	70.2	0	2	270	0.00	30.006 
12:35	78.3	78.3	80.8	79	71.2	1	4	270	0.00	30.006 
12:40	78.5	78.5	81.1	77	70.7	1	3	270	0.00	30.006 
12:45	78.3	78.3	80.7	77	70.5	1	3	270	0.00	30.005 
12:50	78.5	78.5	81.1	78	71.1	0	2	270	0.00	30.005 
12:55	78.6	78.6	81.3	78	71.1	0	2	270	0.00	30.005 
13:00	78.8	78.8	81.6	77	71.0	0	2	270	0.00	30.002 
13:05	79.4	79.4	82.4	74	70.4	0	2	270	0.00	30.002 
13:10	79.6	79.6	82.7	74	70.6	1	3	270	0.00	30.002 
13:15	79.8	79.8	83.2	75	71.1	1	3	270	0.00	30.000 
13:20	80.3	80.3	83.9	73	70.8	1	4	270	0.00	30.000 
13:25	80.5	80.5	84.2	73	71.0	1	3	270	0.00	30.000 
13:30	80.3	80.3	83.9	73	70.8	1	3	270	0.00	29.995 
13:35	80.1	80.1	83.0	69	69.0	1	3	270	0.00	29.995 
13:40	80.7	80.7	84.3	71	70.4	1	3	292	0.00	29.995 
13:45	81.2	81.2	84.8	69	70.0	1	3	292	0.00	29.997 
13:50	81.6	81.6	85.3	68	70.0	2	4	292	0.00	29.997 
13:55	81.6	81.6	85.3	68	70.0	0	2	315	0.00	29.997 
14:00	81.8	81.8	85.1	65	68.9	1	3	315	0.00	29.998 
14:05	82.0	82.0	84.6	61	67.2	1	2	315	0.00	29.998 
14:10	82.4	82.4	85.6	63	68.5	1	3	292	0.00	29.998 
14:15	82.8	82.8	86.1	62	68.4	1	3	292	0.00	30.002 
14:20	82.8	82.8	85.4	59	67.0	1	3	292	0.00	30.002 
14:25	83.0	83.0	85.3	57	66.2	1	4	315	0.00	30.002 
14:30	82.8	82.8	84.8	56	65.5	2	4	315	0.00	30.002 
14:35	82.8	82.8	85.2	58	66.5	0	2	315	0.00	30.002 
14:40	83.2	83.2	86.0	59	67.4	1	5	292	0.00	30.002 
14:45	83.2	83.2	85.8	58	66.9	2	5	292	0.00	30.003 
14:50	83.0	83.0	85.5	58	66.7	1	5	270	0.00	30.003 
14:55	82.8	82.8	85.4	59	67.0	1	3	315	0.00	30.003 
15:00	82.6	82.6	85.1	59	66.8	1	4	292	0.00	30.004 
15:05	83.4	83.4	86.3	59	67.5	2	4	292	0.00	30.004 
15:10	83.6	83.6	86.4	58	67.2	2	3	315	0.00	30.004 
15:15	83.4	83.4	85.8	57	66.5	2	4	270	0.00	30.007 
15:20	83.0	83.0	85.5	58	66.7	2	4	270	0.00	30.007 
15:25	82.8	82.8	85.4	59	67.0	1	3	270	0.00	30.007 
15:30	83.2	83.2	86.2	60	67.8	1	3	292	0.00	30.006 
15:35	83.8	83.8	86.4	57	66.9	2	4	292	0.00	30.006 
15:40	84.1	84.1	86.2	54	65.6	2	5	270	0.00	30.006 
15:45	84.5	84.5	86.5	53	65.5	2	5	315	0.00	30.010 
15:50	84.7	84.7	86.5	52	65.1	1	4	292	0.00	30.010 
15:55	84.9	84.9	86.3	50	64.2	1	4	315	0.00	30.010 
16:00	84.9	84.9	86.3	50	64.2	1	3	292	0.00	30.010 
16:05	85.1	85.1	86.6	50	64.3	1	3	292	0.00	30.010 
16:10	85.3	85.3	87.4	52	65.6	1	3	292	0.00	30.010 
16:15	85.5	85.5	86.6	48	63.5	1	5	270	0.00	30.014 
16:20	85.5	85.5	86.4	47	62.9	2	3	315	0.00	30.014 
16:25	84.9	84.9	85.8	48	63.0	2	4	315	0.00	30.014 
16:30	84.7	84.7	85.2	46	61.6	1	3	292	0.00	30.017 
16:35	84.5	84.5	84.9	46	61.4	2	4	315	0.00	30.017 
16:40	84.5	84.5	85.3	48	62.6	2	4	315	0.00	30.017 
16:45	84.7	84.7	85.2	46	61.6	2	3	292	0.00	30.017 
16:50	84.5	84.5	85.3	48	62.6	2	4	270	0.00	30.017 
16:55	84.7	84.7	85.0	45	61.0	2	4	315	0.00	30.017 
17:00	84.3	84.3	84.7	46	61.2	3	6	315	0.00	30.019 
17:05	84.1	84.1	84.4	46	61.1	3	5	270	0.00	30.019 
17:10	84.0	84.0	84.3	46	61.0	2	4	292	0.00	30.019 
17:15	84.0	84.0	83.8	43	59.1	3	6	270	0.00	30.020 
17:20	83.6	83.6	83.7	45	60.0	1	4	292	0.00	30.020 
17:25	83.6	83.6	83.4	43	58.7	3	5	270	0.00	30.020 
17:30	83.6	83.6	83.7	45	60.0	2	4	270	0.00	30.018 
17:35	83.6	83.6	84.6	50	63.0	2	3	292	0.00	30.018 
17:40	83.4	83.4	84.2	49	62.2	3	6	270	0.00	30.018 
17:45	83.4	83.4	84.2	49	62.2	1	3	292	0.00	30.011 
17:50	83.8	83.8	84.5	48	62.0	1	4	315	0.00	30.011 
17:55	84.0	84.0	84.5	47	61.6	1	3	270	0.00	30.011 
18:00	83.8	83.8	84.3	47	61.4	2	5	292	0.00	30.006 
18:05	83.0	83.0	83.7	49	61.8	2	4	270	0.00	30.006 
18:10	82.6	82.6	83.1	48	60.9	2	4	270	0.00	30.006 
18:15	82.6	82.6	83.6	51	62.6	2	5	270	0.00	30.009 
18:20	82.4	82.4	83.5	52	63.0	2	4	270	0.00	30.009 
18:25	82.2	82.2	82.7	48	60.5	2	6	270	0.00	30.009 
18:30	82.0	82.0	82.6	49	60.9	2	4	270	0.00	30.008 
18:35	81.8	81.8	82.3	48	60.2	2	5	315	0.00	30.008 
18:40	81.4	81.4	81.2	42	56.1	1	3	292	0.00	30.008 
18:45	81.2	81.2	80.8	40	54.6	1	4	338	0.00	30.013 
18:50	81.2	81.2	80.7	39	53.9	1	3	248	0.00	30.013 
18:55	81.2	81.2	80.9	41	55.2	1	3	248	0.00	30.013 
19:00	81.1	81.1	80.9	42	55.8	1	3	315	0.00	30.013 
19:05	81.1	81.1	81.0	43	56.5	1	3	315	0.00	30.013 
19:10	81.2	81.2	81.2	44	57.2	2	5	292	0.00	30.013 
19:15	81.2	81.2	81.2	44	57.2	2	4	292	0.00	30.009 
19:20	81.4	81.4	81.5	45	58.0	1	2	292	0.00	30.009 
19:25	81.2	81.2	81.3	45	57.8	1	4	292	0.00	30.009 
19:30	81.1	81.1	81.1	44	57.1	1	3	292	0.00	30.013 
19:35	81.1	81.1	81.0	43	56.5	1	2	292	0.00	30.013 
19:40	80.9	80.9	80.9	43	56.3	1	3	315	0.00	30.013 
19:45	80.7	80.7	80.8	44	56.7	1	3	270	0.00	30.016 
19:50	80.3	80.3	80.1	40	53.8	2	10	315	0.00	30.016 
19:55	80.1	80.1	80.0	40	53.6	2	4	338	0.00	30.016 
20:00	79.8	79.8	79.8	40	53.3	2	4	315	0.00	30.018 
20:05	79.6	79.6	79.8	42	54.5	1	3	315	0.00	30.018 
20:10	79.4	79.4	79.8	43	54.9	0	2	315	0.00	30.018 
20:15	79.0	79.0	79.6	45	55.8	0	2	315	0.00	30.026 
20:20	78.6	78.6	79.3	44	54.8	1	3	315	0.00	30.026 
20:25	78.3	78.3	79.2	45	55.2	1	3	315	0.00	30.026 
20:30	77.9	77.9	79.0	46	55.4	0	1	315	0.00	30.026 
20:35	77.6	77.6	78.8	46	55.2	0	2	315	0.00	30.026 
20:40	77.4	77.4	78.7	46	55.0	0	1	315	0.00	30.026 
20:45	77.0	77.0	78.5	46	54.6	0	1	315	0.00	30.025 
20:50	76.8	76.8	78.4	47	55.0	0	1	315	0.00	30.025 
20:55	76.7	76.7	78.4	47	54.9	0	1	315	0.00	30.025 
21:00	76.3	76.3	78.2	48	55.1	0	0	---	0.00	30.027 
21:05	76.0	76.0	78.1	51	56.5	0	0	---	0.00	30.027 
21:10	75.4	75.4	77.8	50	55.4	0	0	---	0.00	30.027 
21:15	75.1	75.1	77.7	51	55.7	0	1	315	0.00	30.030 
21:20	74.7	74.7	74.7	51	55.4	0	0	---	0.00	30.030 
21:25	74.2	74.2	74.2	53	56.0	0	0	---	0.00	30.030 
21:30	73.9	73.9	73.9	53	55.7	0	0	---	0.00	30.031 
21:35	73.3	73.3	73.3	54	55.6	0	0	---	0.00	30.031 
21:40	72.8	72.8	72.8	55	55.7	0	0	---	0.00	30.031 
21:45	72.5	72.5	72.5	55	55.4	0	0	---	0.00	30.033 
21:50	72.0	72.0	72.0	55	54.9	0	0	---	0.00	30.033 
21:55	71.6	71.6	71.6	56	55.1	0	0	---	0.00	30.033 
22:00	71.3	71.3	71.3	56	54.8	0	0	---	0.00	30.036 
22:05	70.8	70.8	70.8	57	54.8	0	0	---	0.00	30.036 
22:10	70.3	70.3	70.3	59	55.3	0	0	---	0.00	30.036 
22:15	69.9	69.9	69.9	60	55.4	0	0	---	0.00	30.036 
22:20	69.4	69.4	69.4	62	55.8	0	0	---	0.00	30.036 
22:25	69.1	69.1	69.1	62	55.5	0	0	---	0.00	30.036 
22:30	68.8	68.8	68.8	64	56.1	0	0	---	0.00	30.045 
22:35	68.4	68.4	68.4	64	55.7	0	0	---	0.00	30.045 
22:40	67.9	67.9	67.9	65	55.7	0	0	---	0.00	30.045 
22:45	67.6	67.6	67.6	66	55.8	0	0	---	0.00	30.048 
22:50	67.3	67.3	67.3	68	56.4	0	0	---	0.00	30.048 
22:55	66.8	66.8	66.8	69	56.3	0	0	---	0.00	30.048 
23:00	66.4	66.4	66.4	69	55.9	0	0	---	0.00	30.050 
23:05	66.1	66.1	66.1	71	56.4	0	0	---	0.00	30.050 
23:10	65.8	65.8	65.8	72	56.5	0	0	---	0.00	30.050 
23:15	65.5	65.5	65.5	73	56.6	0	0	---	0.00	30.047 
23:20	65.3	65.3	65.3	73	56.4	0	0	---	0.00	30.047 
23:25	65.0	65.0	65.0	74	56.5	0	0	---	0.00	30.047 
23:30	64.8	64.8	64.8	76	57.0	0	0	---	0.00	30.048 
23:35	64.5	64.5	64.5	76	56.8	0	0	---	0.00	30.048 
23:40	64.5	64.5	64.5	77	57.1	0	0	---	0.00	30.048 
23:45	64.3	64.3	64.3	78	57.3	0	0	---	0.00	30.060 
23:50	64.3	64.3	64.3	79	57.6	0	0	---	0.00	30.060 
23:55	64.3	64.3	64.3	79	57.6	0	0	---	0.00	30.060 

CoCoRaHS
IN-AL-39
A2 Web Hosting
Creative Commons License
GoDaddy
search engine by freefind advanced

loaded 2018-11-15 03:02:43 • last modified 2010-11-18 10:43:29
Privacy PolicyDisclaimer
• wx.awcolley.com is powered by PmWiki v.2002016 •
• all content (unless otherwise noted) © 2018 A W Colley